Tropical Cyclones
[Index]
Main Index Home Page Stock Weather Photos Extreme Storms Discussion Storm News and Storm Chasing Reports Tropical Cyclones / Hurricanes / Typhoons Weather Data and Links Wild Fires / Bushfires Weather Observation Techniques Weather Picture Catalogue Tornado Pictures and Reports Stock Video Footage and DVDs for sale
Season 2012-2013 Tropical Cyclone TIM Track Map
Season 2012-2013 Summaries (Operational Data): [AU] [SIO] [SPAC] [SH]
<<- Previous TC | 2012-2013 Season | Next TC ->>

click for intensity scale information  Lat/long Grid: Show Hide

 Date Labels: Show Hide

Operational Tropical Cyclone Data : JTWC Advisories

Name: TIM
Number: 1320

09 Mar 2013 18:00 UTC to 20 Mar 2013 18:00 UTC

    date/time    lat    long     hPa   cat  kts
2013-03-09 18   12.8   135.1    1010         15          
2013-03-10 00   12.9   135.4    1010         15          
2013-03-10 06   12.9   135.7    1010         15          
2013-03-10 12   12.9   136.4    1010         15          
2013-03-10 18   12.9   136.4    1010         15          
2013-03-11 00   12.8   137.0    1010         15          
2013-03-11 00   12.8   137.0    1010         15          
2013-03-11 06   12.6   137.6    1010         15          
2013-03-11 12   12.3   138.2    1007         20          
2013-03-11 18   12.0   138.8    1004         25          
2013-03-12 00   11.7   139.3    1004         25          
2013-03-12 06   11.3   139.7    1001         25          
2013-03-12 12   11.1   140.3    1001         25          
2013-03-12 18   11.0   141.1    1004         25          
2013-03-13 00   11.0   142.3    1000         30          
2013-03-13 06   11.1   143.8    1000         30          
2013-03-13 12   12.0   145.7    1000         30          
2013-03-13 18   13.3   147.1     996    1    35          
2013-03-14 00   14.2   148.5     989    1    45          
2013-03-14 06   14.7   149.7     985    2    50          
2013-03-14 12   15.0   150.9     985    2    50          
2013-03-14 18   15.3   152.1     982    2    55          
2013-03-15 00   15.6   153.2     985    2    50          
2013-03-15 06   16.1   154.1     989    1    45          
2013-03-15 12   16.6   154.3     989    1    45          
2013-03-15 18   16.9   154.3     993    1    40          
2013-03-16 00   17.1   154.1     993    1    40          
2013-03-16 06   17.3   153.9     996    1    35          
2013-03-16 12   17.7   153.5     996    1    35          
2013-03-16 18   18.1   153.2     996    1    35          
2013-03-17 00   18.4   153.0     996    1    35          
2013-03-17 06   18.7   152.8     996    1    35          
2013-03-17 12   19.0   152.6     996    1    35          
2013-03-17 18   19.3   152.2    1000         30          
2013-03-18 00   19.4   151.9    1004         25          
2013-03-18 06   19.5   151.4    1004         25          
2013-03-18 12   19.5   151.0    1004         25          
2013-03-18 18   19.5   150.7    1004         25          
2013-03-19 00   19.6   150.5    1004         25          
2013-03-19 06   19.7   150.2    1004         25          
2013-03-19 12   19.6   149.7    1004         25          
2013-03-19 18   19.0   149.2    1004         25          
2013-03-20 00   18.3   148.5    1004         25          
2013-03-20 06   18.1   147.7    1004         25          
2013-03-20 12   17.9   146.9    1004         25          
2013-03-20 18   17.8   146.3    1004         25          
Winds are 10-min average.

Tropical cyclone tracks developed by Michael Bath using operational warnings and advisories and Google Maps.


[Australian Severe Weather index] [Copyright Notice] [Email Contacts] [Search This Site] [Privacy Policy]
Document: tropical_cyclone_tim.htm Updated: 2 May 2017